TimeCDT,TemperatureF,Dew PointF,Humidity,Sea Level PressureIn,VisibilityMPH,Wind Direction,Wind SpeedMPH,Gust SpeedMPH,PrecipitationIn,Events,Conditions,WindDirDegrees,DateUTC
12:15 AM,58.8,56.3,91,30.04,10.0,Calm,Calm,-,N/A,,Clear,0,2013-07-11 05:15:00
12:35 AM,57.7,55.0,91,30.04,10.0,Calm,Calm,-,N/A,,Clear,0,2013-07-11 05:35:00
12:55 AM,57.2,54.9,92,30.05,10.0,Calm,Calm,-,N/A,,Clear,0,2013-07-11 05:55:00
1:15 AM,57.2,54.9,92,30.05,10.0,Calm,Calm,-,N/A,,Clear,0,2013-07-11 06:15:00
1:35 AM,57.2,54.7,91,30.05,10.0,Calm,Calm,-,N/A,,Clear,0,2013-07-11 06:35:00
1:55 AM,57.6,55.4,92,30.05,10.0,Calm,Calm,-,N/A,,Clear,0,2013-07-11 06:55:00
2:15 AM,57.2,54.9,92,30.06,7.0,Calm,Calm,-,N/A,,Clear,0,2013-07-11 07:15:00
2:35 AM,56.3,54.1,92,30.06,2.0,Calm,Calm,-,N/A,,Clear,0,2013-07-11 07:35:00
2:55 AM,55.9,53.8,92,30.07,7.0,Calm,Calm,-,N/A,,Clear,0,2013-07-11 07:55:00
3:15 AM,56.8,55.0,94,30.08,10.0,Calm,Calm,-,N/A,,Clear,0,2013-07-11 08:15:00
3:35 AM,56.8,55.0,94,30.08,10.0,Calm,Calm,-,N/A,,Clear,0,2013-07-11 08:35:00
3:55 AM,55.0,52.9,92,30.08,7.0,Calm,Calm,-,N/A,,Scattered Clouds,0,2013-07-11 08:55:00
4:15 AM,56.1,54.3,94,30.08,10.0,Calm,Calm,-,N/A,,Mostly Cloudy,0,2013-07-11 09:15:00
4:35 AM,57.4,55.6,94,30.08,10.0,Calm,Calm,-,N/A,,Scattered Clouds,0,2013-07-11 09:35:00
4:55 AM,57.2,55.4,94,30.08,10.0,Calm,Calm,-,N/A,,Clear,0,2013-07-11 09:55:00
5:15 AM,57.2,55.0,92,30.09,10.0,Calm,Calm,-,N/A,,Clear,0,2013-07-11 10:15:00
5:35 AM,56.8,54.5,92,30.09,7.0,Calm,Calm,-,N/A,,Clear,0,2013-07-11 10:35:00
5:55 AM,56.7,54.5,92,30.10,5.0,Calm,Calm,-,N/A,,Clear,0,2013-07-11 10:55:00
6:15 AM,57.2,55.0,92,30.11,10.0,Calm,Calm,-,N/A,,Clear,0,2013-07-11 11:15:00
6:35 AM,58.5,56.3,93,30.11,10.0,Calm,Calm,-,N/A,,Clear,0,2013-07-11 11:35:00
6:55 AM,61.0,58.6,92,30.12,10.0,Calm,Calm,-,N/A,,Clear,0,2013-07-11 11:55:00
7:15 AM,62.6,59.0,88,30.12,10.0,Calm,Calm,-,N/A,,Clear,0,2013-07-11 12:15:00
7:35 AM,64.6,58.8,82,30.12,10.0,Calm,Calm,-,N/A,,Clear,0,2013-07-11 12:35:00
7:55 AM,67.5,59.4,75,30.12,10.0,Calm,Calm,-,N/A,,Clear,0,2013-07-11 12:55:00
8:15 AM,69.4,58.5,68,30.12,10.0,Calm,Calm,-,N/A,,Clear,0,2013-07-11 13:15:00
8:35 AM,71.6,57.9,62,30.12,10.0,Calm,Calm,-,N/A,,Clear,0,2013-07-11 13:35:00
8:55 AM,73.4,58.6,60,30.13,10.0,NW,4.6,-,N/A,,Clear,320,2013-07-11 13:55:00
9:15 AM,74.7,59.4,59,30.13,10.0,Calm,Calm,-,N/A,,Clear,0,2013-07-11 14:15:00
9:35 AM,75.7,59.2,56,30.13,10.0,Calm,Calm,-,N/A,,Clear,0,2013-07-11 14:35:00
9:55 AM,77.5,56.8,49,30.13,10.0,NNW,3.5,-,N/A,,Clear,340,2013-07-11 14:55:00
10:15 AM,77.5,55.9,47,30.13,10.0,NNW,5.8,-,N/A,,Clear,340,2013-07-11 15:15:00
10:35 AM,78.3,53.6,42,30.13,10.0,NNE,6.9,-,N/A,,Clear,20,2013-07-11 15:35:00
10:55 AM,79.9,54.7,42,30.13,10.0,ENE,4.6,-,N/A,,Clear,70,2013-07-11 15:55:00
11:15 AM,79.5,53.6,41,30.13,10.0,Calm,Calm,-,N/A,,Clear,0,2013-07-11 16:15:00
11:35 AM,79.0,53.4,41,30.13,10.0,ENE,3.5,-,N/A,,Clear,70,2013-07-11 16:35:00
11:55 AM,79.3,53.8,41,30.13,10.0,NNE,5.8,-,N/A,,Clear,30,2013-07-11 16:55:00
12:15 PM,81.1,54.0,39,30.13,10.0,Calm,Calm,-,N/A,,Clear,0,2013-07-11 17:15:00
12:35 PM,80.6,51.1,36,30.13,10.0,NNW,3.5,-,N/A,,Scattered Clouds,340,2013-07-11 17:35:00
12:55 PM,81.9,50.5,34,30.13,10.0,SE,3.5,-,N/A,,Scattered Clouds,140,2013-07-11 17:55:00
1:15 PM,79.5,50.4,36,30.13,10.0,ENE,4.6,-,N/A,,Clear,60,2013-07-11 18:15:00
1:35 PM,80.6,50.2,35,30.13,10.0,NNE,5.8,-,N/A,,Clear,30,2013-07-11 18:35:00
1:55 PM,81.7,47.1,30,30.12,10.0,Calm,Calm,-,N/A,,Clear,0,2013-07-11 18:55:00
2:15 PM,82.8,48.4,30,30.12,10.0,NE,5.8,-,N/A,,Clear,50,2013-07-11 19:15:00
2:35 PM,82.9,46.0,27,30.12,10.0,ENE,3.5,-,N/A,,Clear,60,2013-07-11 19:35:00
2:55 PM,83.7,46.2,27,30.12,10.0,SE,4.6,-,N/A,,Clear,130,2013-07-11 19:55:00
3:15 PM,83.3,46.2,27,30.11,10.0,ENE,4.6,-,N/A,,Clear,60,2013-07-11 20:15:00
3:35 PM,82.9,47.7,29,30.11,10.0,ESE,5.8,-,N/A,,Clear,120,2013-07-11 20:35:00
3:55 PM,83.3,46.4,27,30.11,10.0,Calm,Calm,-,N/A,,Clear,0,2013-07-11 20:55:00
4:15 PM,83.3,47.7,29,30.10,10.0,Calm,Calm,-,N/A,,Clear,0,2013-07-11 21:15:00
4:35 PM,83.3,48.4,30,30.10,10.0,Calm,Calm,-,N/A,,Clear,0,2013-07-11 21:35:00
4:55 PM,83.3,49.1,30,30.10,10.0,SSE,3.5,-,N/A,,Clear,160,2013-07-11 21:55:00
5:15 PM,82.9,49.6,31,30.10,10.0,SE,4.6,-,N/A,,Clear,130,2013-07-11 22:15:00
5:35 PM,82.4,51.6,34,30.09,10.0,SSE,8.1,-,N/A,,Clear,160,2013-07-11 22:35:00
6:15 PM,81.1,53.2,38,30.09,10.0,SE,8.1,-,N/A,,Clear,130,2013-07-11 23:15:00
6:35 PM,79.9,53.2,40,30.09,10.0,SE,9.2,-,N/A,,Clear,140,2013-07-11 23:35:00
6:55 PM,79.0,51.4,38,30.09,10.0,SE,9.2,-,N/A,,Clear,130,2013-07-11 23:55:00
7:15 PM,78.1,51.6,40,30.09,10.0,ESE,6.9,-,N/A,,Clear,120,2013-07-12 00:15:00
7:35 PM,76.6,50.2,39,30.09,10.0,SE,6.9,-,N/A,,Clear,140,2013-07-12 00:35:00
7:55 PM,75.4,50.4,41,30.09,10.0,SE,5.8,-,N/A,,Clear,140,2013-07-12 00:55:00
8:15 PM,72.9,52.2,48,30.08,10.0,SSE,4.6,-,N/A,,Clear,150,2013-07-12 01:15:00
8:35 PM,71.1,52.3,52,30.08,10.0,SE,3.5,-,N/A,,Clear,130,2013-07-12 01:35:00
8:55 PM,67.6,54.7,63,30.08,10.0,Calm,Calm,-,N/A,,Clear,0,2013-07-12 01:55:00
9:15 PM,67.6,55.0,64,30.09,10.0,Calm,Calm,-,N/A,,Clear,0,2013-07-12 02:15:00
9:35 PM,66.9,55.2,66,30.09,10.0,Calm,Calm,-,N/A,,Clear,0,2013-07-12 02:35:00
9:55 PM,65.1,54.9,69,30.10,10.0,Calm,Calm,-,N/A,,Clear,0,2013-07-12 02:55:00
10:15 PM,64.0,55.2,73,30.10,10.0,Calm,Calm,-,N/A,,Clear,0,2013-07-12 03:15:00
10:35 PM,63.9,55.9,75,30.09,10.0,Calm,Calm,-,N/A,,Clear,0,2013-07-12 03:35:00
10:55 PM,61.5,55.4,80,30.10,10.0,Calm,Calm,-,N/A,,Clear,0,2013-07-12 03:55:00
11:15 PM,60.8,55.2,82,30.10,10.0,Calm,Calm,-,N/A,,Clear,0,2013-07-12 04:15:00
11:35 PM,61.5,55.6,81,30.10,10.0,Calm,Calm,-,N/A,,Clear,0,2013-07-12 04:35:00
11:55 PM,61.5,55.4,80,30.10,10.0,SSE,3.5,-,N/A,,Clear,150,2013-07-12 04:55:00